Time;durP1;ratioP1;P1;durP2;ratioP2;P2;SDS_P1;SDS_P2;PMS_P1;PMS_P2;Temp;Humidity;BMP_temperature;BMP_pressure;BME280_temperature;BME280_humidity;BME280_pressure;Samples;Min_cycle;Max_cycle;Signal;HPM_P1;HPM_P2
2022/04/18 00:01:25;;;;;;;2.70;2.30;;;;;;;11.58;40.40;100727.94;5066192;28;20406;-72
2022/04/18 00:03:50;;;;;;;2.00;1.90;;;;;;;11.53;40.56;100733.28;5053654;28;20749;-72
2022/04/18 00:06:15;;;;;;;2.30;2.10;;;;;;;11.46;40.39;100730.72;5067050;28;20399;-72
2022/04/18 00:08:41;;;;;;;2.67;2.47;;;;;;;11.39;40.50;100731.94;5070459;28;20403;-72
2022/04/18 00:11:06;;;;;;;4.10;2.37;;;;;;;11.37;40.95;100723.22;5060956;28;20496;-72
2022/04/18 00:13:31;;;;;;;2.47;2.37;;;;;;;11.31;40.83;100725.00;5087646;28;20737;-72
2022/04/18 00:16:02;;;;;;;2.97;2.07;;;;;;;11.25;40.98;100719.75;5066937;28;20393;-72
2022/04/18 00:18:27;;;;;;;2.55;2.20;;;;;;;11.21;40.97;100721.28;5069445;28;20426;-72
2022/04/18 00:20:52;;;;;;;3.20;2.20;;;;;;;11.20;41.38;100723.16;5059701;28;20401;-73
2022/04/18 00:23:18;;;;;;;3.87;2.13;;;;;;;11.27;41.02;100712.16;5071413;28;20394;-73
2022/04/18 00:25:43;;;;;;;2.60;2.40;;;;;;;11.22;41.01;100721.06;5069260;28;20460;-73
2022/04/18 00:28:08;;;;;;;2.90;2.00;;;;;;;11.20;41.42;100712.31;5071445;28;20419;-73
2022/04/18 00:30:34;;;;;;;3.07;2.43;;;;;;;11.23;41.32;100708.31;5063323;28;20404;-72
2022/04/18 00:32:59;;;;;;;3.27;2.27;;;;;;;11.13;40.72;100705.41;5067037;28;20397;-72
2022/04/18 00:35:24;;;;;;;3.93;2.10;;;;;;;11.00;41.17;100713.84;5052090;28;20822;-73
2022/04/18 00:37:49;;;;;;;2.47;2.10;;;;;;;10.98;41.00;100700.50;5067183;28;20467;-72
2022/04/18 00:40:15;;;;;;;2.60;1.90;;;;;;;10.86;41.17;100702.44;5068288;28;20404;-71
2022/04/18 00:42:45;;;;;;;1.90;1.80;;;;;;;10.88;41.50;100697.59;5071336;28;20790;-72
2022/04/18 00:45:11;;;;;;;3.10;2.33;;;;;;;10.83;40.99;100694.78;5052624;28;20844;-72
2022/04/18 00:47:36;;;;;;;2.30;2.10;;;;;;;10.74;41.59;100691.63;5045052;28;20455;-72
2022/04/18 00:50:02;;;;;;;3.03;2.13;;;;;;;10.70;41.79;100690.44;5056405;28;20448;-72
2022/04/18 00:52:28;;;;;;;2.00;1.80;;;;;;;10.63;41.35;100684.38;5075782;28;20388;-72
2022/04/18 00:54:55;;;;;;;2.25;2.05;;;;;;;10.62;41.71;100673.75;5053664;28;20501;-72
2022/04/18 00:57:23;;;;;;;2.55;2.00;;;;;;;10.61;41.44;100682.94;5057262;28;20462;-72
2022/04/18 00:59:48;;;;;;;3.47;2.50;;;;;;;10.59;41.66;100677.75;5073444;28;20594;-72
2022/04/18 01:02:14;;;;;;;3.30;1.60;;;;;;;10.60;42.14;100682.13;5058168;28;20480;-73
2022/04/18 01:04:40;;;;;;;2.30;2.10;;;;;;;10.57;41.75;100679.06;5052218;28;20389;-73
2022/04/18 01:07:05;;;;;;;1.90;1.80;;;;;;;10.51;41.63;100677.28;5055827;28;20445;-72
2022/04/18 01:09:33;;;;;;;2.37;2.20;;;;;;;10.53;42.14;100669.78;5059244;28;20413;-73
2022/04/18 01:11:58;;;;;;;3.75;1.88;;;;;;;10.49;41.95;100672.13;5062425;28;20384;-72
2022/04/18 01:14:24;;;;;;;2.15;1.95;;;;;;;10.51;41.78;100667.28;5054678;28;20395;-73
2022/04/18 01:16:49;;;;;;;2.23;2.00;;;;;;;10.45;42.24;100660.13;5067355;28;20405;-73
2022/04/18 01:19:15;;;;;;;5.03;2.87;;;;;;;10.37;42.33;100660.50;5057409;28;20466;-72
2022/04/18 01:21:40;;;;;;;2.13;1.85;;;;;;;10.33;42.46;100657.44;5057879;28;20421;-72
2022/04/18 01:28:58;;;;;;;4.77;2.00;;;;;;;10.30;42.45;100649.81;5048773;28;20406;-72
2022/04/18 01:29:34;;;;;;;2.43;2.17;;;;;;;10.26;42.83;100651.34;5075325;28;20509;-72
2022/04/18 01:31:59;;;;;;;4.03;2.60;;;;;;;10.25;43.02;100646.97;5059528;28;20874;-72
2022/04/18 01:34:25;;;;;;;2.30;2.10;;;;;;;10.30;42.99;100655.22;5070996;28;20389;-72
2022/04/18 01:36:50;;;;;;;1.90;1.80;;;;;;;10.20;42.92;100641.44;5076713;28;20456;-72
2022/04/18 01:39:15;;;;;;;2.53;1.97;;;;;;;10.15;43.28;100641.31;5062796;28;20436;-73
2022/04/18 01:41:41;;;;;;;2.40;2.20;;;;;;;10.18;43.30;100640.03;5073341;28;20473;-72
2022/04/18 01:44:06;;;;;;;3.05;2.10;;;;;;;10.07;43.83;100635.44;5056566;28;20883;-72
2022/04/18 01:46:31;;;;;;;2.37;2.23;;;;;;;10.00;43.54;100637.44;5059956;28;20399;-72
2022/04/18 01:48:57;;;;;;;3.27;1.97;;;;;;;9.88;43.93;100640.13;5064932;28;20399;-72
2022/04/18 01:51:22;;;;;;;3.63;1.97;;;;;;;9.86;43.87;100634.97;5074753;28;20972;-72
2022/04/18 01:53:48;;;;;;;2.60;1.83;;;;;;;9.84;44.04;100644.38;5059751;28;20396;-72
2022/04/18 01:56:13;;;;;;;2.03;1.90;;;;;;;9.86;44.32;100634.13;5054491;28;20406;-72
2022/04/18 01:58:39;;;;;;;3.07;2.37;;;;;;;9.88;44.49;100640.13;5062766;28;20488;-72
2022/04/18 02:01:04;;;;;;;4.35;2.20;;;;;;;9.86;44.67;100642.25;5077982;28;20463;-73
2022/04/18 02:03:30;;;;;;;2.67;2.40;;;;;;;9.85;44.26;100633.31;5057320;28;20481;-72
2022/04/18 02:05:55;;;;;;;3.40;2.67;;;;;;;9.77;44.92;100646.38;5069196;28;20413;-72
2022/04/18 02:08:22;;;;;;;2.33;2.22;;;;;;;9.56;45.00;100645.06;5054230;28;20432;-72
2022/04/18 02:10:48;;;;;;;3.07;2.50;;;;;;;9.50;45.91;100637.06;5064883;28;20416;-72
2022/04/18 02:13:13;;;;;;;3.47;2.60;;;;;;;9.44;45.66;100648.81;5074047;28;20755;-72
2022/04/18 02:15:39;;;;;;;2.23;2.10;;;;;;;9.30;46.07;100640.91;5039979;28;20466;-72
2022/04/18 02:18:04;;;;;;;3.83;2.27;;;;;;;9.19;46.64;100640.88;5048186;28;20749;-72
2022/04/18 02:20:30;;;;;;;4.30;2.50;;;;;;;9.04;46.72;100637.78;5064202;28;21068;-72
2022/04/18 02:22:59;;;;;;;2.80;2.50;;;;;;;9.02;47.22;100640.72;5080312;28;20479;-72
2022/04/18 02:25:24;;;;;;;2.70;2.20;;;;;;;9.02;47.56;100643.44;5057580;28;20393;-73
2022/04/18 02:27:51;;;;;;;2.13;2.03;;;;;;;9.06;47.46;100641.06;5071995;28;20422;-72
2022/04/18 02:30:17;;;;;;;5.47;2.53;;;;;;;9.07;46.77;100640.84;5100052;28;20450;-73
2022/04/18 02:32:48;;;;;;;3.33;2.50;;;;;;;9.05;47.28;100645.69;5070930;28;20415;-73
2022/04/18 02:35:24;;;;;;;4.03;2.40;;;;;;;9.01;47.72;100638.25;5054607;28;20491;-73
2022/04/18 02:37:50;;;;;;;2.72;2.50;;;;;;;8.99;47.49;100627.66;5060595;28;20407;-72
2022/04/18 02:40:16;;;;;;;2.63;2.35;;;;;;;9.09;47.35;100641.44;5062473;28;20396;-73
2022/04/18 02:42:42;;;;;;;2.40;2.20;;;;;;;9.19;47.23;100638.16;5053664;28;20465;-72
2022/04/18 02:45:09;;;;;;;3.67;2.63;;;;;;;9.23;47.31;100629.38;5069596;28;20474;-73
2022/04/18 02:47:35;;;;;;;3.30;2.53;;;;;;;9.27;46.66;100625.16;5060042;28;20409;-72
2022/04/18 02:50:00;;;;;;;5.17;2.20;;;;;;;9.17;47.49;100626.78;5058745;28;20771;-72
2022/04/18 02:52:25;;;;;;;2.83;2.53;;;;;;;9.00;47.59;100623.06;5052454;28;20417;-72
2022/04/18 02:54:50;;;;;;;3.03;2.37;;;;;;;8.95;47.60;100622.94;5051471;28;20404;-73
2022/04/18 02:57:16;;;;;;;2.90;2.37;;;;;;;8.96;47.86;100620.00;5058800;28;20413;-72
2022/04/18 02:59:41;;;;;;;2.43;2.20;;;;;;;8.96;47.96;100628.09;5053367;28;20389;-72
2022/04/18 03:02:07;;;;;;;2.77;2.53;;;;;;;9.01;47.69;100630.97;5065697;28;20392;-72
2022/04/18 03:04:32;;;;;;;4.35;2.78;;;;;;;9.01;48.03;100622.84;5068469;28;20495;-72
2022/04/18 03:06:58;;;;;;;2.17;1.98;;;;;;;8.95;47.49;100618.38;5051934;28;20404;-73
2022/04/18 03:09:23;;;;;;;3.43;2.43;;;;;;;8.88;48.38;100608.72;5067873;28;20402;-72
2022/04/18 03:11:48;;;;;;;3.93;2.43;;;;;;;8.82;48.29;100613.97;5068878;28;20407;-72
2022/04/18 03:14:14;;;;;;;2.87;2.63;;;;;;;8.81;48.11;100612.34;5057734;28;20880;-73
2022/04/18 03:16:39;;;;;;;4.07;2.65;;;;;;;8.74;48.38;100605.38;5055502;28;20506;-72
2022/04/18 03:19:05;;;;;;;4.53;2.00;;;;;;;8.62;48.69;100604.50;5071482;28;20420;-72
2022/04/18 03:21:30;;;;;;;3.87;2.23;;;;;;;8.68;48.49;100603.59;5079803;28;20426;-73
2022/04/18 03:23:55;;;;;;;4.47;2.80;;;;;;;8.69;48.46;100605.25;5078286;28;20392;-73
2022/04/18 03:26:20;;;;;;;2.70;2.50;;;;;;;8.64;48.73;100596.97;5061171;28;20805;-72
2022/04/18 03:28:46;;;;;;;2.70;2.50;;;;;;;8.72;48.74;100596.69;5057660;28;20417;-73
2022/04/18 03:31:12;;;;;;;2.67;2.47;;;;;;;8.68;48.58;100595.47;5052568;28;20400;-73
2022/04/18 03:33:37;;;;;;;3.72;2.75;;;;;;;8.57;48.76;100596.25;5075884;28;20394;-73
2022/04/18 03:41:30;;;;;;;3.17;2.55;;;;;;;8.49;49.11;100597.41;5065134;28;20469;-72
2022/04/18 03:43:56;;;;;;;2.80;2.57;;;;;;;8.42;48.73;100598.53;5055753;28;20382;-72
2022/04/18 03:46:21;;;;;;;4.50;2.50;;;;;;;8.43;48.73;100587.47;5082199;28;20412;-72
2022/04/18 03:48:46;;;;;;;4.37;2.87;;;;;;;8.62;48.09;100582.88;5064378;28;20455;-73
2022/04/18 03:51:11;;;;;;;4.47;2.87;;;;;;;8.66;47.96;100586.78;5063889;28;20383;-72
2022/04/18 03:53:37;;;;;;;4.17;2.70;;;;;;;8.56;48.01;100579.19;5063993;28;20392;-72
2022/04/18 03:56:02;;;;;;;3.23;2.53;;;;;;;8.55;48.45;100579.44;5071860;28;20944;-72
2022/04/18 03:58:27;;;;;;;4.30;2.60;;;;;;;8.54;48.58;100577.78;5047671;28;20520;-72
2022/04/18 04:00:52;;;;;;;5.40;2.77;;;;;;;8.55;48.78;100580.28;5053804;28;20842;-72
2022/04/18 04:03:18;;;;;;;4.40;2.60;;;;;;;8.46;49.40;100586.22;5066250;28;20387;-72
2022/04/18 04:05:43;;;;;;;5.13;2.70;;;;;;;8.26;49.48;100584.56;5072334;28;20482;-72
2022/04/18 04:08:08;;;;;;;3.33;2.73;;;;;;;8.28;50.04;100576.28;5065757;28;20452;-72
2022/04/18 04:10:34;;;;;;;6.07;2.73;;;;;;;8.28;49.96;100579.78;5043220;28;20851;-72
2022/04/18 04:12:59;;;;;;;4.13;2.60;;;;;;;8.31;50.08;100579.34;5058718;28;20450;-72
2022/04/18 04:15:25;;;;;;;3.78;2.58;;;;;;;8.39;49.56;100582.78;5052755;28;20390;-72
2022/04/18 04:17:50;;;;;;;2.60;2.50;;;;;;;8.43;49.34;100584.78;5049373;28;20437;-72
2022/04/18 04:20:16;;;;;;;3.47;3.13;;;;;;;8.41;49.31;100580.66;5040606;28;20385;-72
2022/04/18 04:22:47;;;;;;;3.80;2.78;;;;;;;8.36;48.97;100578.66;5051827;28;20412;-72
2022/04/18 04:25:12;;;;;;;5.75;2.90;;;;;;;8.24;49.09;100575.84;5067919;28;20430;-72
2022/04/18 04:27:38;;;;;;;5.10;2.30;;;;;;;8.20;48.62;100571.97;5057068;28;20891;-72
2022/04/18 04:30:04;;;;;;;3.25;2.63;;;;;;;8.14;49.01;100569.34;5059620;28;20395;-72
2022/04/18 04:32:29;;;;;;;3.08;2.80;;;;;;;8.09;49.52;100569.22;5059762;28;20386;-72
2022/04/18 04:34:54;;;;;;;2.70;2.50;;;;;;;8.11;49.14;100572.50;5067117;28;20387;-72
2022/04/18 04:37:19;;;;;;;2.83;2.58;;;;;;;8.12;49.23;100564.19;5052930;28;20413;-72
2022/04/18 04:39:45;;;;;;;3.03;2.73;;;;;;;8.12;49.01;100566.06;5058265;28;20412;-73
2022/04/18 04:42:10;;;;;;;6.28;3.03;;;;;;;8.03;49.57;100565.53;5043180;28;20400;-72
2022/04/18 04:44:36;;;;;;;3.07;2.77;;;;;;;8.06;49.09;100566.97;5065772;28;20457;-72
2022/04/18 04:47:01;;;;;;;8.17;2.87;;;;;;;8.07;49.45;100569.41;5055001;28;20438;-72
2022/04/18 04:49:27;;;;;;;6.77;3.33;;;;;;;8.04;49.40;100561.78;5065837;28;20489;-72
2022/04/18 04:51:52;;;;;;;3.25;2.88;;;;;;;8.03;49.21;100556.63;5070793;28;20452;-72
2022/04/18 04:54:17;;;;;;;3.37;2.87;;;;;;;7.99;49.19;100567.03;5058121;28;20742;-72
2022/04/18 04:56:42;;;;;;;3.40;2.80;;;;;;;7.92;49.36;100563.59;5058824;28;20457;-72
2022/04/18 04:59:08;;;;;;;2.90;2.63;;;;;;;7.93;49.67;100559.84;5057612;28;20412;-72
2022/04/18 05:01:33;;;;;;;5.00;2.70;;;;;;;7.94;49.64;100564.19;5046796;28;20883;-72
2022/04/18 05:03:59;;;;;;;4.10;2.70;;;;;;;7.98;49.64;100559.97;5058013;28;20404;-72
2022/04/18 05:06:24;;;;;;;6.47;2.60;;;;;;;8.02;49.28;100555.78;5070291;28;20427;-72
2022/04/18 05:08:49;;;;;;;4.70;3.35;;;;;;;7.96;49.30;100563.97;5058952;28;20395;-72
2022/04/18 05:11:15;;;;;;;4.67;3.10;;;;;;;7.97;49.42;100552.13;5068142;28;20420;-72
2022/04/18 05:13:40;;;;;;;3.42;3.05;;;;;;;7.95;50.18;100565.84;5060669;28;20409;-72
2022/04/18 05:16:05;;;;;;;4.93;2.87;;;;;;;7.97;50.18;100558.31;5055304;28;20397;-70
2022/04/18 05:18:31;;;;;;;4.07;2.73;;;;;;;8.09;49.24;100564.63;5068299;28;20444;-72
2022/04/18 05:20:57;;;;;;;2.70;2.50;;;;;;;8.15;49.68;100560.19;5051421;28;20395;-72
2022/04/18 05:23:22;;;;;;;3.25;2.60;;;;;;;8.19;49.64;100558.72;5074124;28;20383;-72
2022/04/18 05:25:48;;;;;;;4.40;2.83;;;;;;;8.21;49.06;100560.13;5074146;28;20525;-72
2022/04/18 05:28:13;;;;;;;4.07;3.10;;;;;;;8.32;49.04;100553.16;5068136;28;20421;-73
2022/04/18 05:30:39;;;;;;;3.95;2.88;;;;;;;8.41;49.00;100559.91;5074163;28;20403;-72
2022/04/18 05:33:06;;;;;;;3.22;2.70;;;;;;;8.47;49.04;100564.38;5056311;28;20392;-72
2022/04/18 05:35:32;;;;;;;3.10;2.70;;;;;;;8.51;48.52;100562.03;5070869;28;20395;-72
2022/04/18 05:37:57;;;;;;;3.10;2.90;;;;;;;8.53;48.44;100565.38;5051753;28;20454;-72
2022/04/18 05:40:23;;;;;;;3.30;3.00;;;;;;;8.54;48.23;100565.13;5069997;28;20504;-72
2022/04/18 05:42:48;;;;;;;3.50;2.40;;;;;;;8.61;48.15;100562.31;5073063;28;20430;-72
2022/04/18 05:45:13;;;;;;;3.97;2.57;;;;;;;8.61;48.00;100562.31;5065027;28;20391;-72
2022/04/18 05:47:39;;;;;;;3.53;3.22;;;;;;;8.68;47.93;100563.06;5076181;28;20903;-72
2022/04/18 05:50:05;;;;;;;3.27;2.80;;;;;;;8.75;48.27;100569.19;5069346;28;20764;-72
2022/04/18 05:52:31;;;;;;;4.00;3.22;;;;;;;8.76;47.89;100574.34;5055691;28;20393;-72
2022/04/18 05:54:56;;;;;;;4.70;2.73;;;;;;;8.81;47.82;100579.06;5056862;28;20438;-72
2022/04/18 05:57:22;;;;;;;3.77;2.90;;;;;;;8.91;47.96;100573.94;5053633;28;20423;-73
2022/04/18 05:59:48;;;;;;;3.53;2.87;;;;;;;8.99;47.67;100579.00;5070506;28;20403;-72
2022/04/18 06:02:13;;;;;;;3.83;2.80;;;;;;;9.02;48.21;100583.13;5053074;28;20391;-72
2022/04/18 06:04:39;;;;;;;4.85;2.90;;;;;;;8.94;47.59;100584.28;5063858;28;20391;-71
2022/04/18 06:07:05;;;;;;;2.67;2.50;;;;;;;9.01;48.34;100582.31;5045843;28;20433;-72
2022/04/18 06:09:30;;;;;;;4.17;2.80;;;;;;;9.12;48.06;100588.81;5065339;28;20405;-72
2022/04/18 06:11:55;;;;;;;3.00;2.80;;;;;;;9.08;47.18;100584.91;5050220;28;20416;-72
2022/04/18 06:14:20;;;;;;;3.03;2.50;;;;;;;9.09;47.36;100589.28;5070949;28;20415;-73
2022/04/18 06:16:46;;;;;;;2.57;2.37;;;;;;;9.23;47.91;100585.28;5073915;28;20410;-72
2022/04/18 06:19:11;;;;;;;3.23;2.93;;;;;;;9.30;47.42;100588.69;5058071;28;20397;-71
2022/04/18 06:21:36;;;;;;;4.93;2.83;;;;;;;9.30;46.83;100580.59;5076312;28;20868;-69
2022/04/18 06:24:02;;;;;;;3.30;2.80;;;;;;;9.32;47.01;100583.88;5091831;28;20536;-69
2022/04/18 06:26:28;;;;;;;2.70;2.50;;;;;;;9.41;46.31;100577.09;5079027;28;20899;-70
2022/04/18 06:28:54;;;;;;;6.97;2.95;;;;;;;9.44;46.65;100575.78;5061003;28;20406;-70
2022/04/18 06:31:19;;;;;;;2.50;2.40;;;;;;;9.46;46.34;100569.06;5056033;28;20765;-70
2022/04/18 06:33:44;;;;;;;3.20;2.90;;;;;;;9.45;46.60;100575.53;5065994;28;20434;-70
2022/04/18 06:36:12;;;;;;;3.07;2.63;;;;;;;9.60;47.03;100570.50;5063857;28;20866;-70
2022/04/18 06:38:37;;;;;;;3.03;2.60;;;;;;;9.70;46.92;100562.59;5068321;28;20427;-72
2022/04/18 06:41:02;;;;;;;3.20;2.50;;;;;;;9.69;46.32;100565.53;5053957;28;20755;-72
2022/04/18 06:43:28;;;;;;;4.13;3.23;;;;;;;9.66;46.64;100564.13;5060853;28;20405;-72
2022/04/18 06:45:53;;;;;;;4.20;2.50;;;;;;;9.78;46.33;100564.94;5079056;28;20396;-72
2022/04/18 06:48:19;;;;;;;3.90;2.67;;;;;;;9.87;45.96;100570.81;5046401;28;20423;-72
2022/04/18 06:50:45;;;;;;;2.85;2.65;;;;;;;9.89;46.13;100561.41;5047331;28;20416;-72
2022/04/18 06:53:11;;;;;;;2.72;2.53;;;;;;;10.04;45.54;100560.91;5043199;28;20427;-72
2022/04/18 06:58:21;;;;;;;4.57;2.80;;;;;;;10.29;44.46;100561.47;5047831;28;20926;-69
2022/04/18 07:00:46;;;;;;;3.90;2.70;;;;;;;10.25;44.58;100560.28;5027819;28;20413;-69
2022/04/18 07:03:11;;;;;;;2.33;2.23;;;;;;;10.25;45.13;100562.19;5044812;28;20428;-70
2022/04/18 07:05:40;;;;;;;3.33;2.47;;;;;;;10.31;44.95;100562.03;5059426;28;20425;-70
2022/04/18 07:08:05;;;;;;;3.38;2.75;;;;;;;10.35;44.40;100559.66;5052352;28;20423;-71
2022/04/18 07:10:31;;;;;;;4.67;2.57;;;;;;;10.44;44.56;100557.41;5055142;28;20411;-70
2022/04/18 07:12:56;;;;;;;3.83;2.60;;;;;;;10.51;44.78;100555.34;5066750;28;20522;-70
2022/04/18 07:15:21;;;;;;;4.93;2.70;;;;;;;10.60;44.37;100564.78;5067730;28;20409;-70
2022/04/18 07:17:46;;;;;;;3.87;2.67;;;;;;;10.68;44.12;100559.78;5060137;28;21099;-71
2022/04/18 07:20:12;;;;;;;3.63;2.73;;;;;;;10.74;43.63;100553.38;5051956;28;20481;-70
2022/04/18 07:22:39;;;;;;;4.97;3.00;;;;;;;10.75;44.11;100555.03;5067218;28;20410;-70
2022/04/18 07:25:04;;;;;;;6.55;2.72;;;;;;;10.74;43.78;100556.09;5067129;28;20402;-70
2022/04/18 07:27:32;;;;;;;5.32;3.25;;;;;;;10.74;43.91;100549.84;5060987;28;20483;-73
2022/04/18 07:29:58;;;;;;;3.10;2.90;;;;;;;10.79;44.00;100549.94;5054959;28;20433;-72
2022/04/18 07:32:23;;;;;;;2.50;2.30;;;;;;;10.92;44.21;100557.78;5061257;28;20453;-73
2022/04/18 07:34:49;;;;;;;3.15;2.83;;;;;;;10.99;44.02;100552.19;5076235;28;20441;-73
2022/04/18 07:37:14;;;;;;;3.50;2.40;;;;;;;11.04;43.62;100544.94;5087910;28;20519;-73
2022/04/18 07:39:39;;;;;;;2.90;2.70;;;;;;;11.14;43.64;100550.53;5057912;28;20400;-73
2022/04/18 07:42:05;;;;;;;3.93;2.67;;;;;;;11.23;43.28;100551.78;5049244;28;20412;-73
2022/04/18 07:44:30;;;;;;;3.05;2.60;;;;;;;11.34;43.37;100550.88;5051277;28;20397;-72
2022/04/18 07:46:55;;;;;;;4.70;2.80;;;;;;;11.41;43.15;100558.84;5061933;28;20433;-73
2022/04/18 07:49:21;;;;;;;4.53;3.13;;;;;;;11.43;43.27;100546.66;5068348;28;20422;-71
2022/04/18 07:51:46;;;;;;;3.63;2.30;;;;;;;11.50;43.26;100551.94;5070919;28;20925;-71
2022/04/18 07:54:14;;;;;;;2.97;2.70;;;;;;;11.64;43.79;100555.94;5061330;28;20410;-72
2022/04/18 07:56:40;;;;;;;2.65;2.40;;;;;;;11.73;42.69;100542.78;5052210;28;20386;-73
2022/04/18 07:59:05;;;;;;;4.40;2.78;;;;;;;11.85;42.55;100555.19;5064655;28;20943;-73
2022/04/18 08:01:31;;;;;;;2.50;2.40;;;;;;;11.99;42.42;100563.78;5055916;28;20394;-73
2022/04/18 08:04:00;;;;;;;2.57;2.40;;;;;;;12.04;42.41;100561.16;5067751;28;20547;-72
2022/04/18 08:06:25;;;;;;;3.40;3.08;;;;;;;12.05;42.14;100560.09;5067541;28;20389;-73
2022/04/18 08:08:51;;;;;;;3.38;2.47;;;;;;;12.04;41.58;100563.03;5065748;28;20438;-71
2022/04/18 08:11:16;;;;;;;3.33;2.80;;;;;;;12.11;41.70;100555.53;5069727;28;20400;-71
2022/04/18 08:13:42;;;;;;;4.97;2.70;;;;;;;12.22;41.30;100555.38;5034554;28;20741;-70
2022/04/18 08:16:08;;;;;;;4.20;2.90;;;;;;;12.40;41.16;100555.06;5058785;28;20375;-71
2022/04/18 08:18:36;;;;;;;2.75;2.50;;;;;;;12.53;41.40;100559.28;5071674;28;20403;-71
2022/04/18 08:21:04;;;;;;;3.33;2.42;;;;;;;12.62;40.73;100565.09;5056980;28;20469;-71
2022/04/18 08:23:30;;;;;;;2.67;2.20;;;;;;;12.67;40.75;100557.00;5066131;28;20401;-70
2022/04/18 08:25:56;;;;;;;5.15;2.67;;;;;;;12.75;41.05;100564.69;5057438;28;20409;-71
2022/04/18 08:28:22;;;;;;;2.90;2.70;;;;;;;12.85;40.61;100562.88;5051769;28;20381;-71
2022/04/18 08:30:47;;;;;;;4.47;2.73;;;;;;;12.94;39.60;100568.69;5065876;28;20388;-71
2022/04/18 08:33:12;;;;;;;3.63;2.88;;;;;;;12.97;39.80;100560.03;5068190;28;20480;-71
2022/04/18 08:35:37;;;;;;;4.83;2.50;;;;;;;13.01;39.33;100567.38;5057889;28;20758;-71
2022/04/18 08:38:03;;;;;;;3.20;2.57;;;;;;;13.09;39.72;100563.41;5061733;28;20417;-70
2022/04/18 08:40:28;;;;;;;2.57;2.37;;;;;;;13.18;39.19;100561.84;5056554;28;20396;-71
2022/04/18 08:42:57;;;;;;;3.83;2.30;;;;;;;13.34;39.63;100566.34;5078775;28;20736;-71
2022/04/18 08:45:24;;;;;;;2.78;2.33;;;;;;;13.47;38.49;100551.47;5066612;28;20404;-71
2022/04/18 08:53:35;;;;;;;3.80;2.75;;;;;;;14.12;38.52;100551.03;5067409;28;20804;-71
2022/04/18 08:56:00;;;;;;;4.53;3.00;;;;;;;14.42;37.83;100550.38;5053343;28;20407;-71
2022/04/18 08:58:27;;;;;;;2.67;2.38;;;;;;;14.83;37.01;100546.63;5055996;28;20475;-71
2022/04/18 09:00:54;;;;;;;3.20;2.80;;;;;;;15.25;36.78;100553.75;5075616;28;20397;-71
2022/04/18 09:03:20;;;;;;;3.20;2.60;;;;;;;15.56;35.64;100550.78;5051363;28;20480;-71
2022/04/18 09:05:45;;;;;;;2.63;2.43;;;;;;;15.96;35.69;100541.66;5062531;28;20396;-71
2022/04/18 09:08:11;;;;;;;2.90;2.70;;;;;;;16.24;33.86;100550.28;5056544;28;20504;-70
2022/04/18 09:10:37;;;;;;;3.10;2.80;;;;;;;16.47;34.25;100542.25;5067456;28;20615;-71
2022/04/18 09:13:04;;;;;;;3.08;2.70;;;;;;;16.76;34.41;100541.59;5057772;28;20786;-71
2022/04/18 09:15:36;;;;;;;5.15;2.97;;;;;;;17.08;33.64;100542.72;5070341;28;20399;-71
2022/04/18 09:18:13;;;;;;;2.90;2.70;;;;;;;17.31;32.25;100537.59;5055973;28;20938;-71
2022/04/18 09:20:43;;;;;;;4.38;3.30;;;;;;;17.50;32.33;100538.53;5058942;28;20401;-71
2022/04/18 09:23:26;;;;;;;2.83;2.63;;;;;;;17.87;31.44;100530.50;5059344;28;20731;-71
2022/04/18 09:26:08;;;;;;;2.30;2.10;;;;;;;18.39;29.99;100535.06;5056498;28;20405;-71
2022/04/18 09:28:40;;;;;;;3.15;2.72;;;;;;;19.04;29.40;100525.06;5038621;28;20758;-71
2022/04/18 09:31:10;;;;;;;2.67;2.40;;;;;;;19.36;28.63;100527.03;5062108;28;20439;-71
2022/04/18 09:33:43;;;;;;;2.95;2.60;;;;;;;20.04;27.81;100524.41;5075809;28;20394;-71
2022/04/18 09:36:11;;;;;;;2.70;2.50;;;;;;;21.41;26.43;100518.53;5052939;28;20440;-71
2022/04/18 09:38:39;;;;;;;3.17;2.63;;;;;;;22.36;24.47;100526.09;5057296;28;20489;-71
2022/04/18 09:41:05;;;;;;;2.78;2.47;;;;;;;22.78;23.46;100524.56;5060577;28;20868;-71
2022/04/18 09:43:45;;;;;;;3.10;2.17;;;;;;;23.11;22.97;100520.19;5064832;28;20395;-71
2022/04/18 09:46:15;;;;;;;2.58;2.38;;;;;;;23.39;22.55;100530.84;5066542;28;20479;-71
2022/04/18 09:48:45;;;;;;;2.50;2.30;;;;;;;23.47;22.08;100521.75;5051052;28;20401;-71
2022/04/18 09:51:22;;;;;;;2.35;2.15;;;;;;;23.10;21.79;100515.78;5069414;28;20987;-71
2022/04/18 09:53:47;;;;;;;3.28;2.30;;;;;;;22.47;22.80;100512.78;5058320;28;20392;-71
2022/04/18 09:56:19;;;;;;;2.53;2.33;;;;;;;22.25;23.70;100513.72;5059113;28;20397;-71
2022/04/18 09:58:44;;;;;;;2.95;1.95;;;;;;;22.32;23.72;100504.97;5064465;28;20556;-71
2022/04/18 10:01:11;;;;;;;2.80;2.00;;;;;;;22.89;23.14;100508.47;5060997;28;20523;-71
2022/04/18 10:03:38;;;;;;;2.10;1.87;;;;;;;23.32;22.64;100505.66;5055898;28;20397;-71
2022/04/18 10:06:05;;;;;;;2.55;2.00;;;;;;;24.14;21.49;100508.81;5068797;28;20385;-71
2022/04/18 10:08:31;;;;;;;3.42;2.00;;;;;;;24.74;20.95;100505.66;5061968;28;20484;-71
2022/04/18 10:11:00;;;;;;;2.73;2.40;;;;;;;24.80;20.40;100504.28;5054117;28;21010;-71
2022/04/18 10:13:27;;;;;;;4.53;2.00;;;;;;;24.88;19.76;100504.59;5060371;28;20818;-71
2022/04/18 10:15:53;;;;;;;3.10;1.60;;;;;;;25.16;19.05;100500.13;5054331;28;20386;-71
2022/04/18 10:18:20;;;;;;;3.53;2.00;;;;;;;24.81;18.68;100502.34;5063462;28;20640;-71
2022/04/18 10:21:12;;;;;;;6.03;2.20;;;;;;;25.27;19.68;100502.09;5064366;28;20406;-71
2022/04/18 10:23:58;;;;;;;1.60;1.50;;;;;;;25.81;19.00;100502.03;5059736;28;20420;-71
2022/04/18 10:27:06;;;;;;;2.50;2.10;;;;;;;25.77;18.12;100506.63;5083227;28;20482;-71
2022/04/18 10:29:36;;;;;;;2.00;1.90;;;;;;;26.36;18.15;100493.13;5068958;28;20407;-71
2022/04/18 10:32:04;;;;;;;2.00;1.90;;;;;;;26.67;17.17;100476.63;5065012;28;20386;-71
2022/04/18 10:34:31;;;;;;;2.75;1.75;;;;;;;26.39;17.51;100481.31;5067017;28;20741;-71
2022/04/18 10:36:59;;;;;;;2.20;1.60;;;;;;;26.83;17.36;100479.50;5068501;28;20442;-71
2022/04/18 10:39:32;;;;;;;1.80;1.70;;;;;;;27.14;17.47;100475.97;5066824;28;20402;-71
2022/04/18 10:41:59;;;;;;;1.80;1.70;;;;;;;27.27;17.26;100469.19;5052343;28;20471;-71
2022/04/18 10:44:33;;;;;;;1.90;1.80;;;;;;;27.27;17.24;100469.19;5062753;28;20422;-72
2022/04/18 10:47:03;;;;;;;1.60;1.50;;;;;;;27.20;16.78;100461.44;5059888;28;20454;-71
2022/04/18 10:49:33;;;;;;;2.05;1.70;;;;;;;27.02;17.62;100468.50;5053742;28;20439;-71
2022/04/18 10:52:08;;;;;;;2.25;1.92;;;;;;;27.82;17.23;100471.06;5064598;28;20391;-71
2022/04/18 10:54:34;;;;;;;2.17;2.08;;;;;;;27.50;16.26;100463.88;5057105;28;20439;-72
2022/04/18 10:57:02;;;;;;;2.95;1.95;;;;;;;28.03;17.41;100466.00;5069334;28;20480;-71
2022/04/18 10:59:36;;;;;;;1.95;1.85;;;;;;;28.65;16.56;100464.25;5062265;28;20405;-71
2022/04/18 11:02:04;;;;;;;1.88;1.77;;;;;;;28.24;15.97;100460.16;5053135;28;20385;-71
2022/04/18 11:04:38;;;;;;;1.90;1.80;;;;;;;28.33;16.46;100452.38;5069517;28;20399;-71
2022/04/18 11:07:05;;;;;;;1.83;1.52;;;;;;;28.36;16.81;100448.88;5059160;28;20482;-72
2022/04/18 11:09:44;;;;;;;2.25;2.05;;;;;;;28.49;16.28;100452.34;5063166;28;20390;-72
2022/04/18 11:12:18;;;;;;;2.15;1.92;;;;;;;28.41;16.78;100443.03;5068730;28;20797;-71
2022/04/18 11:14:43;;;;;;;1.92;1.63;;;;;;;28.32;16.55;100437.66;5060296;28;20899;-71
2022/04/18 11:17:11;;;;;;;4.10;2.00;;;;;;;28.18;16.77;100442.91;5064991;28;20421;-73
2022/04/18 11:19:41;;;;;;;1.80;1.70;;;;;;;28.51;16.77;100433.28;5052940;28;20398;-72
2022/04/18 11:22:23;;;;;;;3.22;1.70;;;;;;;28.32;16.35;100437.66;5069354;28;20391;-71
2022/04/18 11:24:49;;;;;;;3.05;1.90;;;;;;;28.15;16.18;100428.91;5059247;28;20427;-71
2022/04/18 11:27:20;;;;;;;2.43;1.73;;;;;;;28.06;16.57;100431.06;5070622;28;20443;-71
2022/04/18 11:29:50;;;;;;;2.67;1.80;;;;;;;28.00;16.69;100419.38;5072878;28;20415;-71
2022/04/18 11:32:17;;;;;;;4.35;2.22;;;;;;;28.49;16.78;100422.47;5064110;28;20428;-71
2022/04/18 11:34:48;;;;;;;1.80;1.70;;;;;;;28.48;15.20;100422.88;5065970;28;20401;-71
2022/04/18 11:37:34;;;;;;;2.58;1.55;;;;;;;27.78;16.36;100420.03;5064123;28;20395;-72
2022/04/18 11:40:05;;;;;;;1.60;1.50;;;;;;;27.60;16.49;100418.78;5056222;28;20473;-71
2022/04/18 11:42:32;;;;;;;1.70;1.60;;;;;;;27.69;16.33;100413.84;5068066;28;20435;-71
2022/04/18 11:45:06;;;;;;;1.38;1.35;;;;;;;27.91;17.23;100409.59;5062300;28;20476;-71